Time;durP1;ratioP1;P1;durP2;ratioP2;P2;SDS_P1;SDS_P2;PMS_P1;PMS_P2;Temp;Humidity;BMP_temperature;BMP_pressure;BME280_temperature;BME280_humidity;BME280_pressure;Samples;Min_cycle;Max_cycle;Signal;HPM_P1;HPM_P2
2023/09/09 00:00:51;;;;;;;17.07;15.40;;;;;;;19.29;83.41;101265.50;5036725;28;20187;-70
2023/09/09 00:03:25;;;;;;;15.10;13.77;;;;;;;19.29;83.71;101268.22;5036195;28;20200;-70
2023/09/09 00:05:52;;;;;;;14.23;13.03;;;;;;;19.28;83.57;101261.13;5036453;28;20190;-71
2023/09/09 00:08:19;;;;;;;15.37;13.40;;;;;;;19.27;84.18;101260.28;5036007;28;20192;-70
2023/09/09 00:10:46;;;;;;;15.20;13.73;;;;;;;19.28;83.71;101263.81;5035973;28;20208;-71
2023/09/09 00:13:12;;;;;;;14.77;13.43;;;;;;;19.27;83.35;101259.44;5035880;28;20206;-71
2023/09/09 00:15:39;;;;;;;13.53;12.50;;;;;;;19.27;83.26;101259.44;5035960;28;20215;-71
2023/09/09 00:18:05;;;;;;;13.37;12.43;;;;;;;19.27;83.42;101256.72;5036113;28;20663;-70
2023/09/09 00:20:33;;;;;;;14.03;12.70;;;;;;;19.27;83.58;101264.84;5035875;28;20196;-71
2023/09/09 00:23:07;;;;;;;13.80;12.80;;;;;;;19.25;83.43;101261.50;5035864;28;20714;-71
2023/09/09 00:25:37;;;;;;;13.17;12.10;;;;;;;19.22;83.53;101261.91;5036113;28;20595;-71
2023/09/09 00:28:05;;;;;;;14.57;13.13;;;;;;;19.19;83.66;101260.41;5035698;28;20222;-70
2023/09/09 00:30:32;;;;;;;15.67;14.17;;;;;;;19.14;83.44;101255.56;5035605;28;20215;-71
2023/09/09 00:32:58;;;;;;;21.43;14.43;;;;;;;19.11;83.34;101253.25;5035648;28;20202;-71
2023/09/09 00:35:26;;;;;;;15.23;13.63;;;;;;;19.10;83.11;101248.03;5036115;28;20710;-71
2023/09/09 00:37:53;;;;;;;15.20;13.73;;;;;;;19.08;83.78;101250.09;5035546;28;20660;-71
2023/09/09 00:40:19;;;;;;;14.47;13.17;;;;;;;19.05;83.65;101242.38;5034179;28;20216;-70
2023/09/09 00:42:47;;;;;;;15.03;13.53;;;;;;;19.02;83.42;101245.44;5035720;28;20206;-70
2023/09/09 00:45:13;;;;;;;15.53;14.17;;;;;;;18.95;83.67;101250.81;5034152;28;20207;-70
2023/09/09 00:47:40;;;;;;;13.27;12.27;;;;;;;18.92;83.96;101244.94;5035677;28;20225;-70
2023/09/09 00:50:10;;;;;;;13.90;13.07;;;;;;;18.87;83.58;101245.53;5033922;28;20246;-70
2023/09/09 00:52:41;;;;;;;14.60;13.30;;;;;;;18.86;83.69;101238.44;5034396;28;20194;-71
2023/09/09 00:55:10;;;;;;;16.60;14.37;;;;;;;18.82;84.32;101239.00;5033991;28;20195;-71
2023/09/09 00:57:37;;;;;;;15.10;13.80;;;;;;;18.80;84.15;101241.06;5035182;28;20660;-71
2023/09/09 01:00:09;;;;;;;15.93;14.33;;;;;;;18.78;83.88;101232.28;5035086;28;20208;-71
2023/09/09 01:02:40;;;;;;;14.10;13.00;;;;;;;18.77;84.33;101242.28;5035300;28;20179;-71
2023/09/09 01:05:08;;;;;;;13.93;12.53;;;;;;;18.77;84.06;101239.56;5035678;28;20602;-71
2023/09/09 01:07:45;;;;;;;15.60;13.97;;;;;;;18.78;83.90;101238.56;5035009;28;20278;-71
2023/09/09 01:10:13;;;;;;;17.30;13.50;;;;;;;18.78;84.22;101240.41;5034858;28;20215;-71
2023/09/09 01:12:42;;;;;;;13.13;12.20;;;;;;;18.76;84.27;101242.47;5033476;28;20206;-71
2023/09/09 01:15:10;;;;;;;14.47;13.23;;;;;;;18.75;84.59;101241.66;5034867;28;20192;-71
2023/09/09 01:17:37;;;;;;;13.50;12.40;;;;;;;18.74;84.43;101231.00;5035094;28;20190;-71
2023/09/09 01:20:14;;;;;;;12.97;11.97;;;;;;;18.74;84.77;101237.25;5034794;28;20208;-70
2023/09/09 01:22:43;;;;;;;13.73;12.53;;;;;;;18.73;84.67;101234.72;5034771;28;20206;-70
2023/09/09 01:25:11;;;;;;;13.60;12.33;;;;;;;18.73;84.89;101232.03;5033418;28;20199;-71
2023/09/09 01:27:38;;;;;;;12.87;11.83;;;;;;;18.71;84.46;101234.94;5034642;28;20194;-71
2023/09/09 01:30:06;;;;;;;12.37;11.07;;;;;;;18.67;84.62;101239.06;5034012;28;20215;-71
2023/09/09 01:32:33;;;;;;;13.87;12.47;;;;;;;18.66;84.47;101234.69;5033216;28;20329;-71
2023/09/09 01:34:59;;;;;;;12.00;11.03;;;;;;;18.63;84.61;101230.47;5033235;28;20282;-71
2023/09/09 01:37:26;;;;;;;13.37;11.90;;;;;;;18.63;84.20;101235.03;5034420;28;20195;-71
2023/09/09 01:39:53;;;;;;;10.77;10.27;;;;;;;18.62;84.50;101234.22;5033029;28;20302;-71
2023/09/09 01:42:19;;;;;;;12.13;11.03;;;;;;;18.60;84.16;101244.41;5033100;28;20615;-71
2023/09/09 01:44:46;;;;;;;13.07;12.03;;;;;;;18.57;84.17;101239.38;5034307;28;20262;-71
2023/09/09 01:47:15;;;;;;;12.87;11.70;;;;;;;18.53;84.23;101240.78;5034215;28;20202;-71
2023/09/09 01:49:42;;;;;;;13.60;12.10;;;;;;;18.50;83.76;101237.59;5033223;28;20687;-71
2023/09/09 01:52:09;;;;;;;13.87;12.47;;;;;;;18.48;83.96;101236.94;5034102;28;20211;-71
2023/09/09 01:54:35;;;;;;;10.80;10.20;;;;;;;18.45;84.30;101240.88;5034082;28;20192;-71
2023/09/09 01:57:02;;;;;;;10.73;10.30;;;;;;;18.40;84.23;101243.31;5034593;28;20192;-71
2023/09/09 01:59:29;;;;;;;11.07;10.40;;;;;;;18.37;84.42;101245.56;5032651;28;20215;-71
2023/09/09 02:01:55;;;;;;;11.87;10.90;;;;;;;18.33;83.95;101236.13;5032729;28;20188;-71
2023/09/09 02:04:23;;;;;;;13.63;12.30;;;;;;;18.32;84.07;101237.16;5033838;28;20204;-71
2023/09/09 02:06:49;;;;;;;10.50;10.10;;;;;;;18.30;83.73;101237.34;5034138;28;20195;-71
2023/09/09 02:09:16;;;;;;;13.73;12.63;;;;;;;18.29;83.86;101232.94;5033788;28;20215;-71
2023/09/09 02:11:43;;;;;;;12.20;11.10;;;;;;;18.26;84.30;101241.44;5033704;28;20762;-71
2023/09/09 02:14:09;;;;;;;11.90;11.10;;;;;;;18.23;83.90;101244.53;5033886;28;20188;-71
2023/09/09 02:16:36;;;;;;;11.87;11.13;;;;;;;18.16;84.23;101244.44;5032460;28;20363;-71
2023/09/09 02:19:03;;;;;;;11.27;10.70;;;;;;;18.14;84.18;101241.09;5033584;28;20214;-71
2023/09/09 02:21:29;;;;;;;12.40;11.60;;;;;;;18.14;84.26;101240.25;5034183;28;20536;-71
2023/09/09 02:23:56;;;;;;;11.90;11.03;;;;;;;18.13;84.33;101243.97;5034130;28;20183;-71
2023/09/09 02:26:22;;;;;;;11.23;10.40;;;;;;;18.11;83.94;101244.19;5032382;28;20257;-72
2023/09/09 02:28:49;;;;;;;11.97;11.17;;;;;;;18.10;84.03;101236.25;5032231;28;20222;-70
2023/09/09 02:31:16;;;;;;;13.63;12.47;;;;;;;18.07;83.83;101232.06;5033631;28;20298;-71
2023/09/09 02:33:42;;;;;;;12.90;12.00;;;;;;;18.04;83.95;101234.28;5033705;28;20191;-71
2023/09/09 02:36:09;;;;;;;11.70;11.00;;;;;;;18.00;84.46;101222.16;5033451;28;20192;-71
2023/09/09 02:38:36;;;;;;;13.53;12.43;;;;;;;18.00;84.36;101241.09;5033356;28;20238;-70
2023/09/09 02:41:03;;;;;;;10.07;9.57;;;;;;;17.96;84.79;101229.81;5033614;28;20183;-70
2023/09/09 02:43:30;;;;;;;12.60;11.30;;;;;;;17.96;84.50;101232.53;5033838;28;20195;-70
2023/09/09 02:45:56;;;;;;;12.23;11.07;;;;;;;17.96;84.43;101231.69;5033291;28;20271;-70
2023/09/09 02:48:23;;;;;;;11.37;10.57;;;;;;;17.94;84.06;101234.59;5033224;28;20184;-70
2023/09/09 02:50:49;;;;;;;13.50;11.80;;;;;;;17.92;84.77;101239.34;5033161;28;20195;-70
2023/09/09 02:53:16;;;;;;;14.03;12.80;;;;;;;17.87;84.44;101227.38;5033482;28;20187;-70
2023/09/09 02:55:42;;;;;;;16.27;12.77;;;;;;;17.87;84.79;101227.38;5033427;28;20192;-70
2023/09/09 02:58:12;;;;;;;13.37;12.27;;;;;;;17.84;85.08;101227.75;5031881;28;20751;-70
2023/09/09 03:00:40;;;;;;;14.47;12.97;;;;;;;17.81;84.62;101229.00;5032715;28;20219;-70
2023/09/09 03:03:06;;;;;;;12.73;11.67;;;;;;;17.79;84.69;101231.88;5031905;28;20191;-71
2023/09/09 03:05:35;;;;;;;13.13;12.13;;;;;;;17.77;84.67;101230.38;5031972;28;20203;-71
2023/09/09 03:08:05;;;;;;;11.27;10.43;;;;;;;17.73;85.17;101231.78;5031855;28;20560;-71
2023/09/09 03:10:32;;;;;;;12.40;11.20;;;;;;;17.71;84.74;101228.41;5031883;28;20274;-70
2023/09/09 03:12:59;;;;;;;13.57;12.53;;;;;;;17.69;85.26;101230.47;5031681;28;20306;-71
2023/09/09 03:15:25;;;;;;;11.37;10.47;;;;;;;17.68;84.96;101232.34;5032631;28;20682;-71
2023/09/09 03:17:52;;;;;;;12.03;11.10;;;;;;;17.66;85.29;101239.78;5037057;28;20192;-71
2023/09/09 03:20:18;;;;;;;13.13;12.03;;;;;;;17.63;85.04;101232.06;5036951;28;20207;-71
2023/09/09 03:22:45;;;;;;;11.33;10.53;;;;;;;17.60;85.39;101235.13;5035725;28;20241;-71
2023/09/09 03:25:11;;;;;;;11.17;10.60;;;;;;;17.59;85.41;101235.31;5036929;28;20184;-71
2023/09/09 03:27:38;;;;;;;12.73;11.53;;;;;;;17.57;85.26;101235.44;5037184;28;20184;-71
2023/09/09 03:30:06;;;;;;;11.97;10.93;;;;;;;17.58;85.39;101239.88;5037050;28;20215;-71
2023/09/09 03:32:32;;;;;;;11.83;10.93;;;;;;;17.58;85.36;101241.72;5035527;28;20668;-71
2023/09/09 03:34:59;;;;;;;12.07;11.33;;;;;;;17.56;85.33;101232.94;5036723;28;20188;-71
2023/09/09 03:37:26;;;;;;;13.87;12.60;;;;;;;17.54;85.38;101230.41;5036724;28;20184;-71
2023/09/09 03:39:52;;;;;;;13.23;12.00;;;;;;;17.54;85.48;101232.28;5035315;28;20698;-71
2023/09/09 03:42:19;;;;;;;17.27;12.33;;;;;;;17.54;85.33;101232.28;5035352;28;20675;-71
2023/09/09 03:44:45;;;;;;;19.83;14.07;;;;;;;17.50;85.64;101228.28;5036558;28;20192;-71
2023/09/09 03:47:12;;;;;;;21.80;13.83;;;;;;;17.41;85.57;101232.91;5035486;28;20196;-71
2023/09/09 03:49:38;;;;;;;12.93;11.93;;;;;;;17.36;85.52;101230.75;5036476;28;20211;-70
2023/09/09 03:52:05;;;;;;;13.57;12.37;;;;;;;17.34;85.61;101237.38;5035107;28;20208;-71
2023/09/09 03:54:32;;;;;;;20.83;13.30;;;;;;;17.33;85.85;101241.94;5035385;28;20192;-71
2023/09/09 03:56:58;;;;;;;12.77;12.07;;;;;;;17.27;85.57;101229.16;5036334;28;20192;-71
2023/09/09 03:59:29;;;;;;;15.53;12.37;;;;;;;17.23;85.62;101237.81;5034964;28;20239;-71
2023/09/09 04:01:57;;;;;;;14.17;12.53;;;;;;;17.21;85.58;101239.88;5035017;28;20177;-71
2023/09/09 04:04:23;;;;;;;11.30;10.30;;;;;;;17.18;85.62;101238.38;5034964;28;20302;-71
2023/09/09 04:06:50;;;;;;;13.03;11.50;;;;;;;17.20;85.39;101243.59;5034885;28;20222;-71
2023/09/09 04:09:22;;;;;;;12.60;11.73;;;;;;;17.21;86.09;101240.72;5034811;28;20219;-71
2023/09/09 04:11:49;;;;;;;16.03;13.30;;;;;;;17.23;85.52;101240.50;5035238;28;20215;-71
2023/09/09 04:14:16;;;;;;;14.07;12.83;;;;;;;17.23;85.58;101238.66;5035109;28;20196;-67
2023/09/09 04:16:43;;;;;;;12.17;11.10;;;;;;;17.21;85.32;101235.31;5034713;28;20668;-67
2023/09/09 04:19:10;;;;;;;14.37;13.27;;;;;;;17.20;85.54;101240.88;5034584;28;20208;-67
2023/09/09 04:21:36;;;;;;;19.93;13.53;;;;;;;17.19;85.26;101241.91;5035916;28;20168;-68
2023/09/09 04:24:03;;;;;;;12.80;11.77;;;;;;;17.15;85.39;101246.81;5034630;28;20191;-68
2023/09/09 04:26:29;;;;;;;13.33;12.10;;;;;;;17.08;85.22;101242.34;5034538;28;20194;-67
2023/09/09 04:28:56;;;;;;;14.00;13.00;;;;;;;17.06;85.43;101247.09;5034703;28;20222;-68
2023/09/09 04:31:22;;;;;;;12.47;11.23;;;;;;;17.04;85.63;101246.44;5036196;28;20168;-68
2023/09/09 04:33:49;;;;;;;13.67;12.70;;;;;;;17.03;85.76;101247.44;5035641;28;20214;-68
2023/09/09 04:36:16;;;;;;;11.87;11.07;;;;;;;17.02;85.46;101249.28;5035580;28;20192;-68
2023/09/09 04:38:42;;;;;;;12.73;11.70;;;;;;;17.03;85.69;101234.78;5034258;28;20213;-68
2023/09/09 04:41:09;;;;;;;12.57;11.77;;;;;;;17.04;85.65;101243.72;5035755;28;20746;-68
2023/09/09 04:43:35;;;;;;;11.70;10.97;;;;;;;17.03;85.17;101250.97;5035715;28;20188;-68
2023/09/09 04:46:02;;;;;;;12.73;11.57;;;;;;;17.05;85.90;101253.50;5034140;28;20249;-68
2023/09/09 04:48:29;;;;;;;13.03;11.93;;;;;;;17.05;86.26;101261.63;5034081;28;20211;-68
2023/09/09 04:50:56;;;;;;;13.47;12.23;;;;;;;17.05;86.08;101257.06;5033661;28;20542;-67
2023/09/09 04:53:23;;;;;;;17.73;13.50;;;;;;;17.05;85.23;101254.34;5034265;28;20691;-71
2023/09/09 04:55:49;;;;;;;12.60;11.43;;;;;;;16.97;85.48;101258.97;5034610;28;20659;-71
2023/09/09 04:58:16;;;;;;;12.77;11.63;;;;;;;16.92;86.12;101259.53;5032730;28;20196;-67
2023/09/09 05:00:42;;;;;;;12.27;11.47;;;;;;;16.87;85.87;101259.22;5033844;28;20200;-67
2023/09/09 05:03:09;;;;;;;11.03;10.47;;;;;;;16.85;85.92;101259.38;5033857;28;20242;-67
2023/09/09 05:05:36;;;;;;;12.17;10.70;;;;;;;16.85;86.31;101258.53;5033837;28;20198;-67
2023/09/09 05:08:03;;;;;;;12.27;11.30;;;;;;;16.86;86.14;101260.22;5033843;28;20623;-68
2023/09/09 05:10:33;;;;;;;12.53;11.60;;;;;;;16.89;86.05;101259.84;5033695;28;20196;-68
2023/09/09 05:13:00;;;;;;;11.83;11.00;;;;;;;16.88;86.04;101261.75;5033547;28;20220;-67
2023/09/09 05:15:26;;;;;;;11.03;10.03;;;;;;;16.86;85.92;101269.16;5033624;28;20195;-67
2023/09/09 05:17:53;;;;;;;11.53;10.60;;;;;;;16.84;86.10;101267.69;5035142;28;20183;-67
2023/09/09 05:20:19;;;;;;;9.90;9.20;;;;;;;16.85;85.95;101272.03;5034732;28;20270;-67
2023/09/09 05:22:46;;;;;;;11.20;10.43;;;;;;;16.85;85.84;101274.75;5033521;28;20219;-67
2023/09/09 05:25:12;;;;;;;10.80;10.20;;;;;;;16.87;86.25;101273.56;5034701;28;20187;-67
2023/09/09 05:27:39;;;;;;;12.27;11.33;;;;;;;16.87;85.78;101273.56;5033375;28;20723;-67
2023/09/09 05:30:06;;;;;;;12.50;11.57;;;;;;;16.83;85.76;101274.94;5033241;28;20559;-67
2023/09/09 05:32:34;;;;;;;12.60;10.70;;;;;;;16.80;85.76;101272.56;5033258;28;20227;-67
2023/09/09 05:35:00;;;;;;;10.80;10.23;;;;;;;16.78;86.31;101269.22;5033211;28;20191;-67
2023/09/09 05:40:27;;;;;;;12.13;11.43;;;;;;;16.83;86.00;101279.50;5373195;23;20251;-67
2023/09/09 05:42:54;;;;;;;13.87;12.87;;;;;;;16.86;86.05;101277.28;4899615;29;20204;-67
2023/09/09 05:45:20;;;;;;;16.07;13.27;;;;;;;16.94;85.83;101280.94;4899287;29;20212;-67
2023/09/09 05:47:47;;;;;;;14.80;13.57;;;;;;;16.97;85.29;101286.84;4898009;29;20196;-67
2023/09/09 05:50:13;;;;;;;15.23;13.93;;;;;;;16.94;85.63;101289.88;4899078;29;20209;-68
2023/09/09 05:52:40;;;;;;;13.77;12.50;;;;;;;16.96;86.37;101289.72;4897832;29;20696;-68
2023/09/09 05:55:08;;;;;;;15.00;13.70;;;;;;;16.96;86.39;101287.84;4897824;29;20200;-67
2023/09/09 05:57:35;;;;;;;12.20;11.27;;;;;;;16.95;86.47;101290.72;4897811;29;20715;-67
2023/09/09 06:00:02;;;;;;;12.23;11.53;;;;;;;16.99;86.62;101297.44;4882236;29;20636;-67
2023/09/09 06:02:38;;;;;;;12.90;11.83;;;;;;;17.05;86.79;101292.19;4899529;29;20203;-67
2023/09/09 06:05:06;;;;;;;12.87;11.67;;;;;;;17.11;86.95;101291.44;4897675;29;20580;-68
2023/09/09 06:07:33;;;;;;;11.20;10.60;;;;;;;17.17;87.04;101290.72;4897638;29;20197;-67
2023/09/09 06:10:00;;;;;;;13.20;12.00;;;;;;;17.26;86.99;101297.75;4898795;29;20582;-68
2023/09/09 06:12:27;;;;;;;11.63;10.70;;;;;;;17.33;86.91;101300.56;4898737;29;20219;-67
2023/09/09 06:14:53;;;;;;;10.83;10.00;;;;;;;17.40;87.30;101298.81;4897607;29;20200;-67
2023/09/09 06:17:24;;;;;;;13.63;12.63;;;;;;;17.47;86.88;101305.19;4897794;29;20672;-67
2023/09/09 06:19:50;;;;;;;13.07;12.17;;;;;;;17.53;86.68;101304.44;4897333;29;20224;-68
2023/09/09 06:22:17;;;;;;;18.97;12.07;;;;;;;17.61;86.79;101311.69;4897381;29;20192;-68
2023/09/09 06:24:43;;;;;;;13.80;12.93;;;;;;;17.64;86.49;101303.19;4897321;29;20691;-67
2023/09/09 06:27:10;;;;;;;13.43;12.20;;;;;;;17.70;86.38;101310.56;4897324;29;20200;-67
2023/09/09 06:29:37;;;;;;;18.60;15.30;;;;;;;17.76;85.56;101307.13;4898639;29;20219;-67
2023/09/09 06:32:06;;;;;;;16.03;14.57;;;;;;;17.86;85.65;101307.72;4897184;29;20220;-67
2023/09/09 06:34:32;;;;;;;18.10;16.50;;;;;;;17.93;85.43;101307.81;4898436;29;20567;-67
2023/09/09 06:36:59;;;;;;;13.77;12.77;;;;;;;17.99;85.55;101313.31;4897160;29;20193;-67
2023/09/09 06:39:25;;;;;;;13.67;12.63;;;;;;;18.08;85.27;101314.06;4898590;29;20212;-67
2023/09/09 06:41:52;;;;;;;14.10;12.77;;;;;;;18.15;85.11;101313.16;4898328;29;20621;-67
2023/09/09 06:44:22;;;;;;;15.87;14.47;;;;;;;18.26;85.42;101328.91;4897119;29;20200;-67
2023/09/09 06:46:49;;;;;;;15.30;13.70;;;;;;;18.38;85.29;101323.84;4898280;29;20563;-67
2023/09/09 06:49:15;;;;;;;21.10;14.03;;;;;;;18.46;85.39;101317.53;4898217;29;20193;-67
2023/09/09 06:51:42;;;;;;;14.80;13.40;;;;;;;18.55;85.49;101324.53;4898231;29;20193;-67
2023/09/09 06:54:08;;;;;;;16.50;14.50;;;;;;;18.65;85.02;101325.91;4898463;29;20689;-67
2023/09/09 06:56:35;;;;;;;19.83;14.57;;;;;;;18.75;85.16;101322.06;4898201;29;20197;-67
2023/09/09 06:59:01;;;;;;;16.00;14.47;;;;;;;18.84;84.87;101327.16;4898379;29;20541;-67
2023/09/09 07:01:28;;;;;;;19.37;15.57;;;;;;;18.96;84.52;101328.38;4898914;29;20192;-67
2023/09/09 07:03:54;;;;;;;18.23;15.10;;;;;;;19.05;84.48;101327.19;4898347;29;20691;-67
2023/09/09 07:06:21;;;;;;;30.97;18.20;;;;;;;19.20;84.82;101335.28;4898133;29;20196;-67
2023/09/09 07:08:48;;;;;;;16.90;14.30;;;;;;;19.31;84.76;101333.94;4898616;29;20256;-67
2023/09/09 07:11:14;;;;;;;17.60;14.30;;;;;;;19.39;84.26;101329.22;4898277;29;20212;-67
2023/09/09 07:13:41;;;;;;;17.40;15.13;;;;;;;19.54;83.60;101331.91;4898250;29;20613;-67
2023/09/09 07:16:08;;;;;;;27.33;16.17;;;;;;;19.64;83.06;101331.56;4898027;29;20192;-67
2023/09/09 07:18:34;;;;;;;19.23;15.93;;;;;;;19.75;82.63;101333.72;4898471;29;20199;-67
2023/09/09 07:21:01;;;;;;;15.97;14.33;;;;;;;19.82;82.35;101331.91;4898017;29;20303;-67
2023/09/09 07:23:27;;;;;;;18.17;15.07;;;;;;;19.92;81.49;101333.25;4897961;29;20601;-67
2023/09/09 07:25:53;;;;;;;17.17;15.33;;;;;;;20.05;80.21;101336.06;4898148;29;20597;-67
2023/09/09 07:28:22;;;;;;;17.20;15.50;;;;;;;20.19;79.25;101333.44;4897927;29;20253;-67
2023/09/09 07:30:51;;;;;;;22.10;15.20;;;;;;;20.23;79.21;101334.69;4897910;29;20216;-67
2023/09/09 07:33:18;;;;;;;22.07;14.43;;;;;;;20.30;79.05;101333.72;4897893;29;20209;-67
2023/09/09 07:35:45;;;;;;;17.57;13.73;;;;;;;20.39;78.86;101335.25;4897881;29;20189;-67
2023/09/09 07:38:11;;;;;;;16.23;14.90;;;;;;;20.48;78.03;101335.91;4897848;29;20272;-67
2023/09/09 07:40:38;;;;;;;15.87;14.20;;;;;;;20.55;77.55;101331.34;4898318;29;20225;-68
2023/09/09 07:43:05;;;;;;;16.70;12.77;;;;;;;20.61;77.27;101330.56;4897798;29;20660;-67
2023/09/09 07:45:32;;;;;;;13.13;12.03;;;;;;;20.70;76.95;101331.22;4898205;29;20185;-67
2023/09/09 07:47:59;;;;;;;13.53;12.53;;;;;;;20.78;77.19;101325.59;4897774;29;20280;-67
2023/09/09 07:50:25;;;;;;;15.07;13.77;;;;;;;20.87;77.00;101327.94;4898061;29;20241;-67
2023/09/09 07:52:52;;;;;;;14.80;13.33;;;;;;;20.97;76.90;101331.09;4898199;29;20201;-67
2023/09/09 07:55:18;;;;;;;19.07;14.70;;;;;;;21.06;76.33;101336.34;4897867;29;20200;-67
2023/09/09 07:57:45;;;;;;;18.00;13.70;;;;;;;21.16;76.82;101334.09;4897926;29;20177;-67
2023/09/09 08:00:13;;;;;;;17.20;15.50;;;;;;;21.25;76.04;101333.72;4897565;29;20216;-67
2023/09/09 08:02:40;;;;;;;20.20;13.50;;;;;;;21.31;75.81;101335.59;4900782;29;20181;-67
2023/09/09 08:05:07;;;;;;;15.50;13.80;;;;;;;21.44;75.74;101337.47;4901073;29;20193;-67
2023/09/09 08:07:34;;;;;;;17.90;16.20;;;;;;;21.59;75.43;101331.84;4901030;29;20184;-67
2023/09/09 08:10:00;;;;;;;21.87;17.47;;;;;;;21.70;74.82;101334.78;4901406;29;20272;-68
2023/09/09 08:12:27;;;;;;;20.90;17.83;;;;;;;21.83;73.95;101337.50;4900836;29;20303;-67
2023/09/09 08:15:06;;;;;;;19.20;16.07;;;;;;;22.04;71.33;101338.34;4900800;29;20192;-67
2023/09/09 08:17:33;;;;;;;15.70;14.50;;;;;;;22.08;71.25;101340.44;4901193;29;20527;-68
2023/09/09 08:20:06;;;;;;;14.97;13.63;;;;;;;22.19;70.59;101334.31;4899621;29;20783;-67
2023/09/09 08:22:34;;;;;;;12.40;11.23;;;;;;;22.23;70.74;101343.78;4901583;29;20196;-67
2023/09/09 08:25:00;;;;;;;13.90;12.80;;;;;;;22.39;70.51;101337.00;4900748;29;20181;-67
2023/09/09 08:27:27;;;;;;;12.13;11.43;;;;;;;22.48;69.82;101343.91;4900966;29;20187;-68
2023/09/09 08:29:56;;;;;;;16.23;12.80;;;;;;;22.57;69.85;101341.78;4900900;29;20221;-68
2023/09/09 08:32:23;;;;;;;12.27;11.38;;;;;;;22.64;69.26;101342.59;4900806;29;20625;-68
2023/09/09 08:34:53;;;;;;;11.23;10.63;;;;;;;22.75;70.01;101341.94;4900824;29;20184;-67
2023/09/09 08:37:20;;;;;;;11.32;10.32;;;;;;;22.81;69.95;101349.25;4900549;29;20189;-67
2023/09/09 08:39:51;;;;;;;9.45;8.70;;;;;;;22.87;70.74;101347.56;4900755;29;20213;-68
2023/09/09 08:42:35;;;;;;;13.98;10.05;;;;;;;23.02;70.53;101356.28;4900347;29;20681;-67
2023/09/09 08:45:12;;;;;;;13.68;9.82;;;;;;;23.16;69.63;101352.44;4900925;29;20173;-67
2023/09/09 08:47:40;;;;;;;12.38;11.60;;;;;;;23.37;69.31;101349.34;4900934;29;20185;-67
2023/09/09 08:50:09;;;;;;;13.80;11.15;;;;;;;23.52;68.73;101354.53;4900215;29;20632;-68
2023/09/09 08:52:36;;;;;;;10.98;10.40;;;;;;;23.51;69.02;101356.41;4900465;29;20688;-68
2023/09/09 08:55:02;;;;;;;20.23;13.10;;;;;;;23.57;69.33;101344.63;4900691;29;20220;-68
2023/09/09 08:57:31;;;;;;;11.98;11.02;;;;;;;23.63;68.82;101348.38;4900112;29;20193;-68
2023/09/09 09:00:03;;;;;;;12.43;11.10;;;;;;;23.67;68.57;101352.31;4900299;29;20213;-68
2023/09/09 09:02:32;;;;;;;11.48;10.73;;;;;;;23.77;68.66;101340.88;4900326;29;20540;-68
2023/09/09 09:05:02;;;;;;;14.35;11.82;;;;;;;23.99;67.56;101347.63;4900510;29;20205;-68
2023/09/09 09:07:29;;;;;;;12.68;11.68;;;;;;;24.08;67.53;101344.38;4898782;29;20684;-68
2023/09/09 09:09:56;;;;;;;15.77;10.50;;;;;;;24.21;67.24;101351.63;4899839;29;20216;-68
2023/09/09 09:12:23;;;;;;;11.88;10.52;;;;;;;24.25;66.25;101350.13;4900212;29;20204;-67
2023/09/09 09:14:50;;;;;;;12.50;10.77;;;;;;;24.36;65.59;101351.25;4899274;29;20196;-67
2023/09/09 09:17:20;;;;;;;10.93;10.35;;;;;;;24.42;65.27;101347.63;4899994;29;20192;-67
2023/09/09 09:19:46;;;;;;;13.18;11.18;;;;;;;24.45;65.53;101356.19;4899981;29;20272;-68
2023/09/09 09:22:13;;;;;;;12.75;11.38;;;;;;;24.65;65.26;101341.47;4899843;29;20245;-68
2023/09/09 09:24:44;;;;;;;12.00;10.98;;;;;;;24.67;65.71;101342.06;4899664;29;20328;-68
2023/09/09 09:27:11;;;;;;;10.98;10.13;;;;;;;24.73;65.54;101346.63;4899885;29;20518;-68
2023/09/09 09:29:39;;;;;;;11.02;9.90;;;;;;;24.86;65.88;101346.50;4899505;29;20231;-68
2023/09/09 09:32:08;;;;;;;14.98;10.70;;;;;;;25.08;63.89;101344.09;4899764;29;20562;-68
2023/09/09 09:34:35;;;;;;;9.98;9.32;;;;;;;25.30;61.78;101337.00;4899694;29;20547;-68
2023/09/09 09:37:10;;;;;;;9.40;8.57;;;;;;;25.31;61.42;101344.16;4899448;29;20180;-68
2023/09/09 09:39:37;;;;;;;8.93;8.40;;;;;;;25.23;62.20;101341.75;4899599;29;20226;-68
2023/09/09 09:42:04;;;;;;;9.13;8.38;;;;;;;25.18;63.15;101342.47;4899721;29;20200;-68
2023/09/09 09:44:31;;;;;;;10.18;8.93;;;;;;;25.22;62.52;101340.09;4899278;29;20177;-68
2023/09/09 09:47:05;;;;;;;9.38;8.80;;;;;;;25.24;63.17;101343.44;4899199;29;20240;-68
2023/09/09 09:49:37;;;;;;;8.93;8.45;;;;;;;25.33;63.26;101336.56;4899387;29;20564;-68
2023/09/09 09:52:05;;;;;;;8.82;8.55;;;;;;;25.39;63.75;101335.63;4899699;29;20199;-68
2023/09/09 09:54:33;;;;;;;21.90;9.88;;;;;;;25.53;62.72;101333.50;4899547;29;20204;-68
2023/09/09 09:57:02;;;;;;;10.40;9.55;;;;;;;25.61;61.93;101341.41;4899306;29;20213;-68
2023/09/09 09:59:34;;;;;;;17.00;10.95;;;;;;;25.82;63.24;101335.34;4898915;29;20583;-68
2023/09/09 10:02:03;;;;;;;16.85;10.18;;;;;;;25.83;61.20;101335.13;4899486;29;20184;-68
2023/09/09 10:04:41;;;;;;;16.30;9.95;;;;;;;26.07;60.91;101335.97;4899155;29;20196;-68
2023/09/09 10:07:13;;;;;;;10.98;10.35;;;;;;;26.24;60.64;101336.94;4898872;29;20244;-68
2023/09/09 10:09:47;;;;;;;13.18;10.27;;;;;;;26.26;61.12;101332.06;4899201;29;20700;-68
2023/09/09 10:12:32;;;;;;;11.55;9.02;;;;;;;26.27;60.57;101332.88;4899142;29;20184;-68
2023/09/09 10:15:15;;;;;;;14.35;10.52;;;;;;;26.23;60.51;101331.69;4899573;29;20205;-68
2023/09/09 10:17:43;;;;;;;15.13;9.77;;;;;;;26.25;59.25;101335.88;4898775;29;20180;-68
2023/09/09 10:20:11;;;;;;;16.15;9.35;;;;;;;26.34;60.97;101331.69;4898733;29;20299;-68
2023/09/09 10:22:39;;;;;;;16.92;9.77;;;;;;;26.33;60.30;101330.00;4898609;29;20225;-68
2023/09/09 10:25:10;;;;;;;15.32;10.00;;;;;;;26.41;61.01;101330.72;4898343;29;20196;-68
2023/09/09 10:27:39;;;;;;;20.80;10.15;;;;;;;26.55;59.59;101330.22;4898814;29;20173;-68
2023/09/09 10:30:09;;;;;;;22.92;10.73;;;;;;;26.66;57.69;101329.34;4898665;29;20259;-68
2023/09/09 10:32:36;;;;;;;21.50;9.40;;;;;;;26.75;57.92;101332.53;4898729;29;20525;-68
2023/09/09 10:35:05;;;;;;;10.55;9.65;;;;;;;26.80;57.15;101328.00;4898383;29;20671;-68
2023/09/09 10:37:35;;;;;;;25.27;9.63;;;;;;;26.76;57.81;101329.56;4898360;29;20252;-68
2023/09/09 10:40:04;;;;;;;19.95;10.48;;;;;;;26.75;59.21;101321.56;4898331;29;20212;-68
2023/09/09 10:42:31;;;;;;;15.02;9.40;;;;;;;26.92;57.31;101329.88;4898121;29;20252;-68
2023/09/09 10:45:29;;;;;;;11.00;9.27;;;;;;;26.87;57.52;101327.88;4898260;29;20188;-68
2023/09/09 10:47:57;;;;;;;11.02;9.23;;;;;;;26.95;57.38;101324.72;4898272;29;20193;-68
2023/09/09 10:50:47;;;;;;;16.20;8.98;;;;;;;26.85;57.11;101319.06;4898369;29;20260;-68
2023/09/09 10:53:14;;;;;;;21.55;9.75;;;;;;;26.94;56.89;101323.09;4898353;29;20201;-68
2023/09/09 10:55:41;;;;;;;20.00;9.75;;;;;;;27.04;56.47;101322.41;4898062;29;20195;-68
2023/09/09 10:58:08;;;;;;;16.60;9.43;;;;;;;27.05;57.97;101324.09;4898136;29;20189;-68
2023/09/09 11:00:40;;;;;;;19.92;10.70;;;;;;;27.09;59.00;101315.13;4898062;29;20339;-68
2023/09/09 11:03:22;;;;;;;9.88;9.07;;;;;;;27.18;57.99;101316.41;4898086;29;20196;-68
2023/09/09 11:06:02;;;;;;;28.92;9.60;;;;;;;27.21;59.35;101321.38;4898355;29;20184;-67
2023/09/09 11:08:32;;;;;;;23.35;9.05;;;;;;;27.37;56.37;101322.47;4898378;29;20577;-68
2023/09/09 11:11:24;;;;;;;16.85;10.07;;;;;;;27.34;56.60;101320.25;4898048;29;20229;-68
2023/09/09 11:14:07;;;;;;;26.17;10.10;;;;;;;27.39;55.88;101320.34;4898500;29;20204;-68
2023/09/09 11:16:39;;;;;;;13.10;9.10;;;;;;;27.51;56.65;101312.88;4898300;29;20184;-68